This demonstration page uses our WeatherBlox Daily Observations layout. Learn more.

41.55636, -103.73856

Hourly Observations for December 10, 2015

Temp ( °F °C ) Dew Point ( °F °C ) Humidity (%) Winds ( mph kmh ) Pressure ( in mb ) Visibility ( mi km ) Precip ( " mm )
12:53 am 00:53 undefined N/A N/A N/A undefined N/A N/A N/A 0 0
1:53 am 01:53 undefined N/A N/A N/A undefined N/A N/A N/A 0 0
3:53 am 03:53 Clear 35 1.7 29 -1.7 78 78 W 10 17 29.75 1007 10 16.0934 0 0
4:53 am 04:53 Clear 32 0 28 -2.2 85 85 WNW 5 7 29.77 1008 10 16.0934 0 0
5:53 am 05:53 Clear 30 -1.1 27 -2.8 88 88 NNW 6 9 29.8 1009 10 16.0934 0 0
6:53 am 06:53 Clear 29 -1.7 26 -3.3 89 89 WNW 3 6 29.81 1009 10 16.0934 0 0
7:53 am 07:53 Sunny 31 -0.6 26 -3.3 82 82 W 9 15 29.81 1010 10 16.0934 0 0
8:53 am 08:53 Sunny 41 5 26 -3.3 55 55 WNW 12 19 29.75 1007 10 16.0934 0 0
9:53 am 09:53 Sunny 45 7.2 26 -3.3 48 48 NW 10 17 29.73 1007 10 16.0934 0 0
10:53 am 10:53 Sunny 48 8.9 25 -3.9 41 41 NW 9 15 29.7 1006 10 16.0934 0 0
11:53 am 11:53 Sunny 50 10 23 -5 35 35 W 7 11 29.67 1005 10 16.0934 0 0
12:53 pm 12:53 Sunny 51 10.6 23 -5 33 33 NW 6 9 29.59 1002 10 16.0934 0 0
1:53 pm 13:53 Sunny 51 10.6 23 -5 33 33 SE 3 6 29.56 1001 10 16.0934 0 0
2:53 pm 14:53 Sunny 50 10 25 -3.9 38 38 ESE 6 9 29.6 1002 10 16.0934 0 0
3:53 pm 15:53 Sunny 46 7.8 25 -3.9 44 44 E 8 13 29.58 1002 10 16.0934 0 0
4:53 pm 16:53 Clear 42 5.6 25 -3.9 51 51 ESE 10 17 29.57 1001 10 16.0934 0 0
5:53 pm 17:53 Clear 39 3.9 25 -3.9 57 57 ESE 12 19 29.56 1001 10 16.0934 0 0
6:53 pm 18:53 Clear 42 5.6 25 -3.9 51 51 ESE 14 22 29.53 1000 10 16.0934 0 0
7:53 pm 19:53 Clear 41 5 25 -3.9 53 53 SE 13 20 29.49 999 10 16.0934 0 0
8:53 pm 20:53 Clear 38 3.3 26 -3.3 62 62 E 12 19 29.47 998 10 16.0934 0 0
9:53 pm 21:53 Clear 37 2.8 26 -3.3 65 65 E 8 13 29.43 997 10 16.0934 0 0
10:53 pm 22:53 Clear 34 1.1 25 -3.9 70 70 ENE 5 7 29.44 997 10 16.0934 0 0
11:53 pm 23:53 Clear 30 -1.1 23 -5 75 75 NNW 7 11 29.47 998 10 16.0934 0 0

Powered by AerisWeather